sensor_id;sensor_type;location;lat;lon;timestamp;P1;durP1;ratioP1;P2;durP2;ratioP2
48777;SDS011;34578;0.000;0.000;2023-05-10T00:02:42;0.95;;;0.57;;
48777;SDS011;34578;0.000;0.000;2023-05-10T00:07:42;0.57;;;0.37;;
48777;SDS011;34578;0.000;0.000;2023-05-10T00:12:44;0.43;;;0.43;;
48777;SDS011;34578;0.000;0.000;2023-05-10T00:17:47;0.40;;;0.32;;
48777;SDS011;34578;0.000;0.000;2023-05-10T00:22:47;1.43;;;0.50;;
48777;SDS011;34578;0.000;0.000;2023-05-10T00:27:48;1.13;;;0.60;;
48777;SDS011;34578;0.000;0.000;2023-05-10T00:32:49;0.80;;;0.43;;
48777;SDS011;34578;0.000;0.000;2023-05-10T00:37:50;0.70;;;0.55;;
48777;SDS011;34578;0.000;0.000;2023-05-10T00:42:50;1.17;;;0.30;;
48777;SDS011;34578;0.000;0.000;2023-05-10T00:47:51;1.10;;;0.98;;
48777;SDS011;34578;0.000;0.000;2023-05-10T00:52:55;0.98;;;0.47;;
48777;SDS011;34578;0.000;0.000;2023-05-10T00:57:56;0.45;;;0.43;;
48777;SDS011;34578;0.000;0.000;2023-05-10T01:02:56;1.25;;;0.57;;
48777;SDS011;34578;0.000;0.000;2023-05-10T01:07:57;1.25;;;0.60;;
48777;SDS011;34578;0.000;0.000;2023-05-10T01:12:57;0.97;;;0.60;;
48777;SDS011;34578;0.000;0.000;2023-05-10T01:18:00;0.45;;;0.43;;
48777;SDS011;34578;0.000;0.000;2023-05-10T01:38:50;0.95;;;0.47;;
48777;SDS011;34578;0.000;0.000;2023-05-10T01:49:31;1.00;;;0.50;;
48777;SDS011;34578;0.000;0.000;2023-05-10T01:54:38;0.60;;;0.57;;
48777;SDS011;34578;0.000;0.000;2023-05-10T01:59:43;1.45;;;0.57;;
48777;SDS011;34578;0.000;0.000;2023-05-10T02:09:50;0.40;;;0.40;;
48777;SDS011;34578;0.000;0.000;2023-05-10T02:14:51;1.63;;;0.60;;
48777;SDS011;34578;0.000;0.000;2023-05-10T02:19:53;0.80;;;0.50;;
48777;SDS011;34578;0.000;0.000;2023-05-10T02:24:55;0.70;;;0.60;;
48777;SDS011;34578;0.000;0.000;2023-05-10T02:29:58;1.05;;;0.95;;
48777;SDS011;34578;0.000;0.000;2023-05-10T02:34:58;1.33;;;0.47;;
48777;SDS011;34578;0.000;0.000;2023-05-10T02:40:01;0.60;;;0.55;;
48777;SDS011;34578;0.000;0.000;2023-05-10T02:45:07;0.63;;;0.40;;
48777;SDS011;34578;0.000;0.000;2023-05-10T02:50:11;0.40;;;0.40;;
48777;SDS011;34578;0.000;0.000;2023-05-10T02:55:12;1.23;;;0.45;;
48777;SDS011;34578;0.000;0.000;2023-05-10T03:00:15;0.70;;;0.47;;
48777;SDS011;34578;0.000;0.000;2023-05-10T03:05:16;0.50;;;0.50;;
48777;SDS011;34578;0.000;0.000;2023-05-10T03:10:17;0.40;;;0.40;;
48777;SDS011;34578;0.000;0.000;2023-05-10T03:20:59;0.50;;;0.50;;
48777;SDS011;34578;0.000;0.000;2023-05-10T03:26:03;0.60;;;0.43;;
48777;SDS011;34578;0.000;0.000;2023-05-10T03:31:04;1.45;;;0.68;;
48777;SDS011;34578;0.000;0.000;2023-05-10T03:36:07;0.50;;;0.50;;
48777;SDS011;34578;0.000;0.000;2023-05-10T03:41:08;2.05;;;0.38;;
48777;SDS011;34578;0.000;0.000;2023-05-10T03:46:08;0.50;;;0.50;;
48777;SDS011;34578;0.000;0.000;2023-05-10T03:51:09;0.50;;;0.47;;
48777;SDS011;34578;0.000;0.000;2023-05-10T03:56:09;0.47;;;0.40;;
48777;SDS011;34578;0.000;0.000;2023-05-10T04:01:10;0.35;;;0.35;;
48777;SDS011;34578;0.000;0.000;2023-05-10T04:06:11;0.50;;;0.50;;
48777;SDS011;34578;0.000;0.000;2023-05-10T04:11:12;1.52;;;0.50;;
48777;SDS011;34578;0.000;0.000;2023-05-10T04:16:13;0.35;;;0.32;;
48777;SDS011;34578;0.000;0.000;2023-05-10T04:21:14;0.70;;;0.60;;
48777;SDS011;34578;0.000;0.000;2023-05-10T04:26:14;2.10;;;0.40;;
48777;SDS011;34578;0.000;0.000;2023-05-10T04:31:14;0.87;;;0.50;;
48777;SDS011;34578;0.000;0.000;2023-05-10T04:36:15;1.13;;;0.60;;
48777;SDS011;34578;0.000;0.000;2023-05-10T04:41:15;0.83;;;0.50;;
48777;SDS011;34578;0.000;0.000;2023-05-10T04:46:15;0.70;;;0.50;;
48777;SDS011;34578;0.000;0.000;2023-05-10T04:51:16;0.85;;;0.50;;
48777;SDS011;34578;0.000;0.000;2023-05-10T04:56:19;3.90;;;0.77;;
48777;SDS011;34578;0.000;0.000;2023-05-10T05:01:19;2.40;;;0.33;;
48777;SDS011;34578;0.000;0.000;2023-05-10T05:06:19;6.17;;;0.90;;
48777;SDS011;34578;0.000;0.000;2023-05-10T05:11:20;5.90;;;1.33;;
48777;SDS011;34578;0.000;0.000;2023-05-10T05:16:21;7.40;;;0.90;;
48777;SDS011;34578;0.000;0.000;2023-05-10T05:21:21;4.00;;;0.90;;
48777;SDS011;34578;0.000;0.000;2023-05-10T05:26:22;2.50;;;1.05;;
48777;SDS011;34578;0.000;0.000;2023-05-10T05:31:22;1.57;;;0.50;;
48777;SDS011;34578;0.000;0.000;2023-05-10T05:36:22;4.50;;;0.70;;
48777;SDS011;34578;0.000;0.000;2023-05-10T05:41:23;4.27;;;0.67;;
48777;SDS011;34578;0.000;0.000;2023-05-10T05:46:24;7.22;;;0.57;;
48777;SDS011;34578;0.000;0.000;2023-05-10T05:51:24;1.73;;;0.67;;
48777;SDS011;34578;0.000;0.000;2023-05-10T05:56:25;0.30;;;0.30;;
48777;SDS011;34578;0.000;0.000;2023-05-10T06:01:25;1.33;;;0.30;;
48777;SDS011;34578;0.000;0.000;2023-05-10T06:06:25;2.63;;;0.30;;
48777;SDS011;34578;0.000;0.000;2023-05-10T06:11:26;1.77;;;0.40;;
48777;SDS011;34578;0.000;0.000;2023-05-10T06:16:27;1.17;;;0.50;;
48777;SDS011;34578;0.000;0.000;2023-05-10T06:21:28;0.88;;;0.40;;
48777;SDS011;34578;0.000;0.000;2023-05-10T06:26:28;1.87;;;1.70;;
48777;SDS011;34578;0.000;0.000;2023-05-10T06:31:28;0.90;;;0.50;;
48777;SDS011;34578;0.000;0.000;2023-05-10T06:36:29;0.60;;;0.30;;
48777;SDS011;34578;0.000;0.000;2023-05-10T06:41:29;3.80;;;0.77;;
48777;SDS011;34578;0.000;0.000;2023-05-10T06:46:29;2.83;;;0.80;;
48777;SDS011;34578;0.000;0.000;2023-05-10T06:51:30;0.30;;;0.27;;
48777;SDS011;34578;0.000;0.000;2023-05-10T06:56:30;0.75;;;0.45;;
48777;SDS011;34578;0.000;0.000;2023-05-10T07:01:31;0.43;;;0.30;;
48777;SDS011;34578;0.000;0.000;2023-05-10T07:06:31;0.40;;;0.30;;
48777;SDS011;34578;0.000;0.000;2023-05-10T07:11:31;0.30;;;0.30;;
48777;SDS011;34578;0.000;0.000;2023-05-10T07:16:32;1.00;;;0.70;;
48777;SDS011;34578;0.000;0.000;2023-05-10T07:21:32;0.87;;;0.50;;
48777;SDS011;34578;0.000;0.000;2023-05-10T07:26:32;0.77;;;0.50;;
48777;SDS011;34578;0.000;0.000;2023-05-10T07:31:33;0.97;;;0.50;;
48777;SDS011;34578;0.000;0.000;2023-05-10T07:36:33;3.10;;;0.50;;
48777;SDS011;34578;0.000;0.000;2023-05-10T07:41:33;0.45;;;0.30;;
48777;SDS011;34578;0.000;0.000;2023-05-10T07:46:34;0.40;;;0.30;;
48777;SDS011;34578;0.000;0.000;2023-05-10T07:51:34;0.50;;;0.30;;
48777;SDS011;34578;0.000;0.000;2023-05-10T07:56:35;0.57;;;0.47;;
48777;SDS011;34578;0.000;0.000;2023-05-10T08:01:35;1.07;;;0.40;;
48777;SDS011;34578;0.000;0.000;2023-05-10T08:06:35;0.50;;;0.30;;
48777;SDS011;34578;0.000;0.000;2023-05-10T08:11:36;0.50;;;0.27;;
48777;SDS011;34578;0.000;0.000;2023-05-10T08:16:36;1.00;;;0.37;;
48777;SDS011;34578;0.000;0.000;2023-05-10T08:21:37;0.63;;;0.50;;
48777;SDS011;34578;0.000;0.000;2023-05-10T08:26:37;0.47;;;0.30;;
48777;SDS011;34578;0.000;0.000;2023-05-10T08:31:37;1.38;;;0.40;;
48777;SDS011;34578;0.000;0.000;2023-05-10T08:36:38;0.67;;;0.40;;
48777;SDS011;34578;0.000;0.000;2023-05-10T08:41:39;0.30;;;0.20;;
48777;SDS011;34578;0.000;0.000;2023-05-10T08:46:40;0.60;;;0.40;;
48777;SDS011;34578;0.000;0.000;2023-05-10T08:51:44;1.00;;;0.30;;
48777;SDS011;34578;0.000;0.000;2023-05-10T08:56:49;0.55;;;0.25;;
48777;SDS011;34578;0.000;0.000;2023-05-10T09:01:50;0.35;;;0.22;;
48777;SDS011;34578;0.000;0.000;2023-05-10T09:06:53;0.30;;;0.30;;
48777;SDS011;34578;0.000;0.000;2023-05-10T09:11:54;1.30;;;0.40;;
48777;SDS011;34578;0.000;0.000;2023-05-10T09:16:54;0.20;;;0.20;;
48777;SDS011;34578;0.000;0.000;2023-05-10T09:21:56;0.40;;;0.32;;
48777;SDS011;34578;0.000;0.000;2023-05-10T09:26:56;2.30;;;0.40;;
48777;SDS011;34578;0.000;0.000;2023-05-10T09:31:58;0.60;;;0.35;;
48777;SDS011;34578;0.000;0.000;2023-05-10T09:36:59;0.97;;;0.40;;
48777;SDS011;34578;0.000;0.000;2023-05-10T09:42:07;0.73;;;0.47;;
48777;SDS011;34578;0.000;0.000;2023-05-10T09:47:09;0.57;;;0.38;;
48777;SDS011;34578;0.000;0.000;2023-05-10T09:52:09;0.98;;;0.57;;
48777;SDS011;34578;0.000;0.000;2023-05-10T09:57:18;0.75;;;0.35;;
48777;SDS011;34578;0.000;0.000;2023-05-10T10:02:20;0.10;;;0.10;;
48777;SDS011;34578;0.000;0.000;2023-05-10T10:07:24;0.30;;;0.30;;
48777;SDS011;34578;0.000;0.000;2023-05-10T10:12:25;0.68;;;0.38;;
48777;SDS011;34578;0.000;0.000;2023-05-10T10:17:26;0.17;;;0.17;;
48777;SDS011;34578;0.000;0.000;2023-05-10T10:22:28;0.40;;;0.20;;
48777;SDS011;34578;0.000;0.000;2023-05-10T10:27:33;0.30;;;0.30;;
48777;SDS011;34578;0.000;0.000;2023-05-10T10:37:46;1.70;;;0.15;;
48777;SDS011;34578;0.000;0.000;2023-05-10T10:42:47;10.43;;;0.98;;
48777;SDS011;34578;0.000;0.000;2023-05-10T10:53:29;10.63;;;1.48;;
48777;SDS011;34578;0.000;0.000;2023-05-10T10:58:30;9.27;;;1.17;;
48777;SDS011;34578;0.000;0.000;2023-05-10T11:03:32;4.05;;;0.75;;
48777;SDS011;34578;0.000;0.000;2023-05-10T11:08:33;3.53;;;0.43;;
48777;SDS011;34578;0.000;0.000;2023-05-10T11:13:44;9.60;;;1.00;;
48777;SDS011;34578;0.000;0.000;2023-05-10T11:18:52;3.83;;;0.77;;
48777;SDS011;34578;0.000;0.000;2023-05-10T11:24:09;3.78;;;0.77;;
48777;SDS011;34578;0.000;0.000;2023-05-10T11:29:13;6.57;;;0.70;;
48777;SDS011;34578;0.000;0.000;2023-05-10T11:34:27;1.50;;;0.60;;
48777;SDS011;34578;0.000;0.000;2023-05-10T11:39:30;5.72;;;1.10;;
48777;SDS011;34578;0.000;0.000;2023-05-10T11:44:31;2.25;;;0.75;;
48777;SDS011;34578;0.000;0.000;2023-05-10T11:49:32;3.20;;;0.80;;
48777;SDS011;34578;0.000;0.000;2023-05-10T11:54:33;3.65;;;1.73;;
48777;SDS011;34578;0.000;0.000;2023-05-10T11:59:35;2.47;;;1.13;;
48777;SDS011;34578;0.000;0.000;2023-05-10T12:04:36;2.75;;;1.00;;
48777;SDS011;34578;0.000;0.000;2023-05-10T12:09:37;5.40;;;1.63;;
48777;SDS011;34578;0.000;0.000;2023-05-10T12:14:48;5.50;;;1.00;;
48777;SDS011;34578;0.000;0.000;2023-05-10T12:19:50;9.07;;;2.00;;
48777;SDS011;34578;0.000;0.000;2023-05-10T12:24:50;4.80;;;1.60;;
48777;SDS011;34578;0.000;0.000;2023-05-10T12:29:51;12.60;;;2.80;;
48777;SDS011;34578;0.000;0.000;2023-05-10T12:34:51;8.43;;;2.73;;
48777;SDS011;34578;0.000;0.000;2023-05-10T12:39:53;5.13;;;2.83;;
48777;SDS011;34578;0.000;0.000;2023-05-10T12:44:56;6.07;;;2.30;;
48777;SDS011;34578;0.000;0.000;2023-05-10T12:49:57;12.90;;;3.08;;
48777;SDS011;34578;0.000;0.000;2023-05-10T12:54:58;9.90;;;2.97;;
48777;SDS011;34578;0.000;0.000;2023-05-10T12:59:59;4.57;;;2.13;;
48777;SDS011;34578;0.000;0.000;2023-05-10T13:05:00;4.17;;;1.63;;
48777;SDS011;34578;0.000;0.000;2023-05-10T13:10:01;5.35;;;2.20;;
48777;SDS011;34578;0.000;0.000;2023-05-10T13:15:01;2.47;;;1.17;;
48777;SDS011;34578;0.000;0.000;2023-05-10T13:20:05;2.60;;;1.30;;
48777;SDS011;34578;0.000;0.000;2023-05-10T13:25:06;5.45;;;2.35;;
48777;SDS011;34578;0.000;0.000;2023-05-10T13:30:07;3.42;;;2.10;;
48777;SDS011;34578;0.000;0.000;2023-05-10T13:35:11;4.07;;;2.35;;
48777;SDS011;34578;0.000;0.000;2023-05-10T13:40:12;9.00;;;2.57;;
48777;SDS011;34578;0.000;0.000;2023-05-10T13:45:12;7.30;;;3.05;;
48777;SDS011;34578;0.000;0.000;2023-05-10T13:50:13;5.10;;;2.13;;
48777;SDS011;34578;0.000;0.000;2023-05-10T13:55:13;7.63;;;2.60;;
48777;SDS011;34578;0.000;0.000;2023-05-10T14:00:13;6.60;;;2.95;;
48777;SDS011;34578;0.000;0.000;2023-05-10T14:05:15;8.13;;;2.75;;
48777;SDS011;34578;0.000;0.000;2023-05-10T14:10:15;6.20;;;3.70;;
48777;SDS011;34578;0.000;0.000;2023-05-10T14:15:16;6.97;;;1.05;;
48777;SDS011;34578;0.000;0.000;2023-05-10T14:20:16;4.27;;;1.23;;
48777;SDS011;34578;0.000;0.000;2023-05-10T14:25:16;6.77;;;2.90;;
48777;SDS011;34578;0.000;0.000;2023-05-10T14:30:17;5.60;;;3.17;;
48777;SDS011;34578;0.000;0.000;2023-05-10T14:35:18;5.03;;;2.50;;
48777;SDS011;34578;0.000;0.000;2023-05-10T14:40:18;4.50;;;2.37;;
48777;SDS011;34578;0.000;0.000;2023-05-10T14:45:18;5.80;;;2.72;;
48777;SDS011;34578;0.000;0.000;2023-05-10T14:50:19;7.85;;;2.88;;
48777;SDS011;34578;0.000;0.000;2023-05-10T14:55:19;6.13;;;2.40;;
48777;SDS011;34578;0.000;0.000;2023-05-10T15:00:20;5.73;;;2.10;;
48777;SDS011;34578;0.000;0.000;2023-05-10T15:05:21;5.40;;;1.60;;
48777;SDS011;34578;0.000;0.000;2023-05-10T15:10:22;3.83;;;1.30;;
48777;SDS011;34578;0.000;0.000;2023-05-10T15:15:22;2.28;;;2.08;;
48777;SDS011;34578;0.000;0.000;2023-05-10T15:20:23;4.77;;;1.37;;
48777;SDS011;34578;0.000;0.000;2023-05-10T15:25:23;7.80;;;1.57;;
48777;SDS011;34578;0.000;0.000;2023-05-10T15:30:23;2.40;;;0.83;;
48777;SDS011;34578;0.000;0.000;2023-05-10T15:35:24;2.63;;;0.70;;
48777;SDS011;34578;0.000;0.000;2023-05-10T15:40:26;1.05;;;0.60;;
48777;SDS011;34578;0.000;0.000;2023-05-10T15:45:28;1.33;;;0.95;;
48777;SDS011;34578;0.000;0.000;2023-05-10T15:50:28;9.73;;;1.10;;
48777;SDS011;34578;0.000;0.000;2023-05-10T15:55:29;5.00;;;1.03;;
48777;SDS011;34578;0.000;0.000;2023-05-10T16:00:29;7.17;;;1.23;;
48777;SDS011;34578;0.000;0.000;2023-05-10T16:05:30;3.65;;;0.88;;
48777;SDS011;34578;0.000;0.000;2023-05-10T16:10:32;1.27;;;0.68;;
48777;SDS011;34578;0.000;0.000;2023-05-10T16:15:33;1.90;;;0.50;;
48777;SDS011;34578;0.000;0.000;2023-05-10T16:20:35;2.65;;;0.55;;
48777;SDS011;34578;0.000;0.000;2023-05-10T16:25:36;3.88;;;0.80;;
48777;SDS011;34578;0.000;0.000;2023-05-10T16:30:36;1.73;;;0.50;;
48777;SDS011;34578;0.000;0.000;2023-05-10T16:35:37;3.97;;;1.20;;
48777;SDS011;34578;0.000;0.000;2023-05-10T16:40:38;2.30;;;0.88;;
48777;SDS011;34578;0.000;0.000;2023-05-10T16:45:38;0.87;;;0.50;;
48777;SDS011;34578;0.000;0.000;2023-05-10T16:50:41;1.67;;;0.70;;
48777;SDS011;34578;0.000;0.000;2023-05-10T16:55:42;1.02;;;0.55;;
48777;SDS011;34578;0.000;0.000;2023-05-10T17:00:43;1.30;;;0.50;;
48777;SDS011;34578;0.000;0.000;2023-05-10T17:05:43;0.67;;;0.23;;
48777;SDS011;34578;0.000;0.000;2023-05-10T17:10:43;6.87;;;0.73;;
48777;SDS011;34578;0.000;0.000;2023-05-10T17:15:44;4.63;;;0.98;;
48777;SDS011;34578;0.000;0.000;2023-05-10T17:20:47;2.38;;;0.80;;
48777;SDS011;34578;0.000;0.000;2023-05-10T17:25:48;2.42;;;0.57;;
48777;SDS011;34578;0.000;0.000;2023-05-10T17:30:54;3.03;;;0.57;;
48777;SDS011;34578;0.000;0.000;2023-05-10T17:35:55;0.73;;;0.45;;
48777;SDS011;34578;0.000;0.000;2023-05-10T17:40:56;4.00;;;0.68;;
48777;SDS011;34578;0.000;0.000;2023-05-10T17:45:56;1.30;;;0.50;;
48777;SDS011;34578;0.000;0.000;2023-05-10T17:50:56;1.70;;;0.50;;
48777;SDS011;34578;0.000;0.000;2023-05-10T17:55:57;2.53;;;0.50;;
48777;SDS011;34578;0.000;0.000;2023-05-10T18:00:58;2.53;;;0.73;;
48777;SDS011;34578;0.000;0.000;2023-05-10T18:05:58;1.50;;;0.70;;
48777;SDS011;34578;0.000;0.000;2023-05-10T18:10:59;6.00;;;0.80;;
48777;SDS011;34578;0.000;0.000;2023-05-10T18:15:59;2.42;;;0.55;;
48777;SDS011;34578;0.000;0.000;2023-05-10T18:21:00;1.13;;;0.50;;
48777;SDS011;34578;0.000;0.000;2023-05-10T18:26:00;3.17;;;0.90;;
48777;SDS011;34578;0.000;0.000;2023-05-10T18:31:01;2.70;;;0.40;;
48777;SDS011;34578;0.000;0.000;2023-05-10T18:36:02;2.25;;;0.50;;
48777;SDS011;34578;0.000;0.000;2023-05-10T18:41:05;2.17;;;0.50;;
48777;SDS011;34578;0.000;0.000;2023-05-10T18:46:05;4.47;;;0.40;;
48777;SDS011;34578;0.000;0.000;2023-05-10T18:51:06;3.85;;;0.50;;
48777;SDS011;34578;0.000;0.000;2023-05-10T18:56:06;3.53;;;0.93;;
48777;SDS011;34578;0.000;0.000;2023-05-10T19:01:07;0.70;;;0.50;;
48777;SDS011;34578;0.000;0.000;2023-05-10T19:06:07;3.85;;;0.47;;
48777;SDS011;34578;0.000;0.000;2023-05-10T19:11:08;2.80;;;0.40;;
48777;SDS011;34578;0.000;0.000;2023-05-10T19:16:09;2.60;;;0.50;;
48777;SDS011;34578;0.000;0.000;2023-05-10T19:21:11;2.47;;;0.43;;
48777;SDS011;34578;0.000;0.000;2023-05-10T19:26:11;0.77;;;0.40;;
48777;SDS011;34578;0.000;0.000;2023-05-10T19:31:12;0.23;;;0.17;;
48777;SDS011;34578;0.000;0.000;2023-05-10T19:36:12;1.27;;;0.50;;
48777;SDS011;34578;0.000;0.000;2023-05-10T19:41:13;2.55;;;0.60;;
48777;SDS011;34578;0.000;0.000;2023-05-10T19:46:13;1.83;;;0.50;;
48777;SDS011;34578;0.000;0.000;2023-05-10T19:51:13;3.47;;;0.30;;
48777;SDS011;34578;0.000;0.000;2023-05-10T19:56:14;0.60;;;0.20;;
48777;SDS011;34578;0.000;0.000;2023-05-10T20:01:15;0.85;;;0.43;;
48777;SDS011;34578;0.000;0.000;2023-05-10T20:06:15;1.40;;;0.40;;
48777;SDS011;34578;0.000;0.000;2023-05-10T20:11:16;1.93;;;0.30;;
48777;SDS011;34578;0.000;0.000;2023-05-10T20:16:16;0.60;;;0.40;;
48777;SDS011;34578;0.000;0.000;2023-05-10T20:21:17;0.60;;;0.30;;
48777;SDS011;34578;0.000;0.000;2023-05-10T20:26:17;4.75;;;0.30;;
48777;SDS011;34578;0.000;0.000;2023-05-10T20:31:18;0.60;;;0.40;;
48777;SDS011;34578;0.000;0.000;2023-05-10T20:36:18;0.53;;;0.40;;
48777;SDS011;34578;0.000;0.000;2023-05-10T20:41:19;5.90;;;1.10;;
48777;SDS011;34578;0.000;0.000;2023-05-10T20:46:19;3.93;;;0.40;;
48777;SDS011;34578;0.000;0.000;2023-05-10T20:51:19;3.00;;;0.30;;
48777;SDS011;34578;0.000;0.000;2023-05-10T20:56:20;0.63;;;0.30;;
48777;SDS011;34578;0.000;0.000;2023-05-10T21:01:21;1.98;;;0.40;;
48777;SDS011;34578;0.000;0.000;2023-05-10T21:06:24;0.20;;;0.20;;
48777;SDS011;34578;0.000;0.000;2023-05-10T21:11:24;0.60;;;0.30;;
48777;SDS011;34578;0.000;0.000;2023-05-10T21:16:25;0.43;;;0.30;;
48777;SDS011;34578;0.000;0.000;2023-05-10T21:21:25;0.57;;;0.40;;
48777;SDS011;34578;0.000;0.000;2023-05-10T21:26:25;2.00;;;0.20;;
48777;SDS011;34578;0.000;0.000;2023-05-10T21:31:26;0.53;;;0.27;;
48777;SDS011;34578;0.000;0.000;2023-05-10T21:36:26;0.40;;;0.27;;
48777;SDS011;34578;0.000;0.000;2023-05-10T21:41:27;3.92;;;0.50;;
48777;SDS011;34578;0.000;0.000;2023-05-10T21:46:27;1.17;;;0.40;;
48777;SDS011;34578;0.000;0.000;2023-05-10T21:51:28;0.80;;;0.50;;
48777;SDS011;34578;0.000;0.000;2023-05-10T21:56:28;0.20;;;0.20;;
48777;SDS011;34578;0.000;0.000;2023-05-10T22:01:28;0.40;;;0.30;;
48777;SDS011;34578;0.000;0.000;2023-05-10T22:06:29;0.57;;;0.20;;
48777;SDS011;34578;0.000;0.000;2023-05-10T22:11:29;0.95;;;0.47;;
48777;SDS011;34578;0.000;0.000;2023-05-10T22:16:30;2.05;;;0.32;;
48777;SDS011;34578;0.000;0.000;2023-05-10T22:21:30;2.23;;;0.43;;
48777;SDS011;34578;0.000;0.000;2023-05-10T22:26:31;0.93;;;0.23;;
48777;SDS011;34578;0.000;0.000;2023-05-10T22:31:31;0.70;;;0.20;;
48777;SDS011;34578;0.000;0.000;2023-05-10T22:36:31;1.07;;;0.30;;
48777;SDS011;34578;0.000;0.000;2023-05-10T22:41:32;0.95;;;0.45;;
48777;SDS011;34578;0.000;0.000;2023-05-10T22:46:36;3.13;;;0.50;;
48777;SDS011;34578;0.000;0.000;2023-05-10T22:51:36;0.28;;;0.20;;
48777;SDS011;34578;0.000;0.000;2023-05-10T22:56:36;1.07;;;0.40;;
48777;SDS011;34578;0.000;0.000;2023-05-10T23:01:37;0.73;;;0.40;;
48777;SDS011;34578;0.000;0.000;2023-05-10T23:06:37;0.55;;;0.22;;
48777;SDS011;34578;0.000;0.000;2023-05-10T23:11:38;0.65;;;0.30;;
48777;SDS011;34578;0.000;0.000;2023-05-10T23:16:38;0.53;;;0.30;;
48777;SDS011;34578;0.000;0.000;2023-05-10T23:21:39;0.20;;;0.20;;
48777;SDS011;34578;0.000;0.000;2023-05-10T23:26:39;1.35;;;0.20;;
48777;SDS011;34578;0.000;0.000;2023-05-10T23:31:40;0.20;;;0.20;;
48777;SDS011;34578;0.000;0.000;2023-05-10T23:36:44;0.08;;;0.08;;
48777;SDS011;34578;0.000;0.000;2023-05-10T23:41:44;0.93;;;0.33;;
48777;SDS011;34578;0.000;0.000;2023-05-10T23:46:44;2.17;;;0.40;;
48777;SDS011;34578;0.000;0.000;2023-05-10T23:51:45;1.65;;;0.40;;
48777;SDS011;34578;0.000;0.000;2023-05-10T23:56:45;0.73;;;0.30;;
